createdAt,value
2019-05-18T00:03:18.526Z,14.21
2019-05-18T00:08:22.762Z,14.09
2019-05-18T00:13:27.115Z,14.08
2019-05-18T00:18:31.377Z,14.06
2019-05-18T00:23:35.633Z,14.01
2019-05-18T00:28:39.891Z,13.96
2019-05-18T00:33:44.122Z,13.92
2019-05-18T00:38:48.614Z,13.87
2019-05-18T00:43:52.882Z,13.80
2019-05-18T00:48:57.164Z,13.74
2019-05-18T00:54:01.435Z,13.68
2019-05-18T00:59:05.695Z,13.64
2019-05-18T01:04:09.946Z,13.58
2019-05-18T01:09:14.187Z,13.49
2019-05-18T01:14:18.437Z,13.41
2019-05-18T01:19:22.705Z,13.35
2019-05-18T01:24:26.945Z,13.35
2019-05-18T01:29:31.181Z,13.33
2019-05-18T01:34:35.438Z,13.29
2019-05-18T01:39:39.818Z,13.25
2019-05-18T01:44:44.067Z,13.20
2019-05-18T01:49:48.339Z,13.16
2019-05-18T01:54:52.595Z,13.12
2019-05-18T01:59:56.840Z,13.05
2019-05-18T02:05:01.091Z,13.00
2019-05-18T02:10:06.170Z,12.97
2019-05-18T02:15:10.850Z,12.96
2019-05-18T02:20:15.302Z,12.95
2019-05-18T02:25:19.846Z,12.87
2019-05-18T02:30:24.101Z,12.85
2019-05-18T02:35:28.350Z,12.78
2019-05-18T02:40:32.592Z,12.76
2019-05-18T02:45:36.864Z,12.70
2019-05-18T02:50:41.148Z,12.66
2019-05-18T02:55:45.414Z,12.61
2019-05-18T03:00:49.674Z,12.59
2019-05-18T03:05:53.933Z,12.54
2019-05-18T03:10:58.208Z,12.50
2019-05-18T03:16:02.646Z,12.44
2019-05-18T03:21:06.883Z,12.46
2019-05-18T03:26:11.164Z,12.43
2019-05-18T03:31:15.407Z,12.37
2019-05-18T03:36:19.615Z,12.38
2019-05-18T03:41:23.858Z,12.39
2019-05-18T03:46:28.111Z,12.42
2019-05-18T03:51:32.400Z,12.41
2019-05-18T03:56:36.629Z,12.40
2019-05-18T04:01:40.895Z,12.42
2019-05-18T04:06:45.151Z,12.45
2019-05-18T04:11:49.447Z,12.49
2019-05-18T04:16:57.714Z,12.57
2019-05-18T04:22:01.964Z,12.55
2019-05-18T04:27:06.187Z,12.58
2019-05-18T04:32:10.447Z,12.61
2019-05-18T04:37:14.693Z,12.63
2019-05-18T04:42:18.947Z,12.78
2019-05-18T04:47:23.180Z,12.80
2019-05-18T04:52:27.741Z,12.74
2019-05-18T04:57:31.986Z,12.72
2019-05-18T05:02:36.243Z,12.69
2019-05-18T05:07:40.503Z,12.76
2019-05-18T05:12:44.870Z,12.86
2019-05-18T05:17:49.075Z,12.98
2019-05-18T05:22:53.328Z,13.24
2019-05-18T05:27:57.599Z,13.42
2019-05-18T05:33:01.843Z,13.56
2019-05-18T05:38:06.185Z,13.57
2019-05-18T05:43:10.479Z,13.84
2019-05-18T05:48:14.718Z,14.05
2019-05-18T05:53:19.010Z,14.28
2019-05-18T05:58:23.265Z,14.46
2019-05-18T06:03:27.515Z,14.66
2019-05-18T06:08:31.798Z,14.81
2019-05-18T06:13:36.067Z,15.06
2019-05-18T06:18:40.969Z,15.19
2019-05-18T06:23:45.214Z,15.34
2019-05-18T06:28:49.459Z,15.68
2019-05-18T06:33:53.720Z,15.76
2019-05-18T06:38:57.969Z,16.02
2019-05-18T06:44:02.242Z,16.15
2019-05-18T06:49:06.493Z,16.48
2019-05-18T06:54:10.723Z,16.68
2019-05-18T06:59:16.555Z,16.69
2019-05-18T07:04:20.832Z,16.76
2019-05-18T07:09:25.113Z,16.86
2019-05-18T07:14:29.373Z,17.01
2019-05-18T07:19:33.636Z,16.74
2019-05-18T07:24:37.912Z,16.93
2019-05-18T07:29:42.177Z,17.31
2019-05-18T07:34:46.423Z,17.48
2019-05-18T07:39:50.757Z,17.59
2019-05-18T07:44:55.033Z,17.78
2019-05-18T07:49:59.305Z,17.87
2019-05-18T07:55:03.731Z,17.97
2019-05-18T08:00:08.701Z,18.23
2019-05-18T08:05:12.975Z,18.11
2019-05-18T08:10:22.792Z,18.33
2019-05-18T08:15:27.038Z,18.43
2019-05-18T08:20:31.290Z,18.58
2019-05-18T08:25:35.507Z,18.67
2019-05-18T08:30:39.773Z,18.67
2019-05-18T08:35:45.127Z,19.19
2019-05-18T08:40:49.380Z,19.19
2019-05-18T08:45:53.633Z,19.62
2019-05-18T08:50:57.903Z,19.44
2019-05-18T08:56:02.164Z,19.31
2019-05-18T09:01:06.410Z,19.56
2019-05-18T09:06:10.779Z,20.18
2019-05-18T09:11:15.038Z,20.28
2019-05-18T09:16:19.330Z,20.31
2019-05-18T09:21:23.592Z,20.13
2019-05-18T09:26:27.864Z,20.07
2019-05-18T09:31:32.161Z,20.19
2019-05-18T09:36:36.406Z,20.28
2019-05-18T09:41:40.644Z,20.19
2019-05-18T09:46:44.886Z,20.11
2019-05-18T09:51:49.136Z,20.29
2019-05-18T09:56:53.378Z,20.48
2019-05-18T10:01:57.822Z,20.54
2019-05-18T10:07:02.079Z,20.75
2019-05-18T10:12:06.324Z,20.79
2019-05-18T10:17:10.580Z,21.08
2019-05-18T10:22:14.809Z,21.35
2019-05-18T10:27:19.065Z,21.75
2019-05-18T10:32:23.412Z,22.03
2019-05-18T10:37:27.652Z,22.49
2019-05-18T10:42:31.906Z,22.73
2019-05-18T10:47:36.144Z,23.01
2019-05-18T10:52:40.400Z,23.48
2019-05-18T10:57:44.769Z,23.55
2019-05-18T11:02:48.991Z,23.91
2019-05-18T11:07:53.241Z,24.70
2019-05-18T11:12:57.477Z,24.26
2019-05-18T11:18:01.719Z,23.78
2019-05-18T11:23:06.030Z,24.72
2019-05-18T11:28:10.268Z,24.80
2019-05-18T11:33:14.553Z,24.31
2019-05-18T11:38:18.797Z,25.84
2019-05-18T11:43:23.074Z,25.83
2019-05-18T11:48:27.299Z,25.55
2019-05-18T11:53:31.556Z,25.69
2019-05-18T11:58:35.803Z,25.71
2019-05-18T12:03:40.075Z,25.08
2019-05-18T12:08:44.332Z,26.93
2019-05-18T12:13:48.567Z,27.74
2019-05-18T12:18:52.806Z,26.90
2019-05-18T12:23:57.068Z,26.12
2019-05-18T12:29:01.323Z,26.77
2019-05-18T12:34:05.699Z,25.94
2019-05-18T12:39:09.981Z,27.40
2019-05-18T12:44:14.239Z,29.16
2019-05-18T12:49:18.486Z,28.08
2019-05-18T12:54:30.869Z,27.70
2019-05-18T12:59:28.686Z,29.60
2019-05-18T13:04:32.944Z,30.48
2019-05-18T13:09:37.192Z,31.44
2019-05-18T13:14:41.433Z,29.63
2019-05-18T13:19:45.684Z,30.69
2019-05-18T13:24:52.307Z,29.56
2019-05-18T13:29:56.360Z,30.44
2019-05-18T13:35:00.621Z,31.50
2019-05-18T13:40:04.986Z,32.27
2019-05-18T13:45:10.225Z,32.01
2019-05-18T13:50:15.180Z,31.93
2019-05-18T13:55:20.272Z,32.06
2019-05-18T14:00:24.654Z,32.58
2019-05-18T14:05:28.909Z,31.13
2019-05-18T14:10:33.174Z,32.52
2019-05-18T14:15:37.410Z,32.27
2019-05-18T14:20:41.643Z,31.57
2019-05-18T14:25:46.267Z,32.61
2019-05-18T14:30:50.593Z,29.24
2019-05-18T14:35:55.016Z,28.98
2019-05-18T14:40:59.262Z,29.37
2019-05-18T14:46:03.515Z,30.78
2019-05-18T14:51:07.908Z,31.29
2019-05-18T14:56:12.121Z,31.94
2019-05-18T15:01:16.368Z,33.02
2019-05-18T15:06:20.607Z,33.23
2019-05-18T15:11:24.874Z,30.69
2019-05-18T15:16:29.119Z,31.04
2019-05-18T15:21:33.357Z,31.58
2019-05-18T15:26:37.614Z,31.20
2019-05-18T15:31:41.862Z,30.02
2019-05-18T15:36:46.094Z,30.91
2019-05-18T15:41:50.328Z,32.45
2019-05-18T15:46:54.587Z,32.97
2019-05-18T15:51:58.813Z,32.72
2019-05-18T15:57:03.051Z,33.18
2019-05-18T16:02:07.488Z,32.75
2019-05-18T16:07:11.717Z,31.29
2019-05-18T16:12:15.958Z,32.48
2019-05-18T16:17:20.249Z,32.35
2019-05-18T16:22:24.507Z,33.46
2019-05-18T16:27:28.828Z,33.23
2019-05-18T16:32:33.050Z,31.73
2019-05-18T16:37:37.311Z,29.23
2019-05-18T16:42:41.602Z,28.21
2019-05-18T16:47:45.895Z,27.45
2019-05-18T16:52:50.102Z,26.82
2019-05-18T16:57:54.349Z,26.76
2019-05-18T17:02:58.626Z,26.27
2019-05-18T17:08:02.864Z,25.82
2019-05-18T17:13:07.097Z,25.94
2019-05-18T17:18:11.336Z,25.66
2019-05-18T17:23:15.886Z,25.35
2019-05-18T17:28:20.142Z,25.23
2019-05-18T17:33:24.413Z,25.00
2019-05-18T17:38:28.644Z,25.11
2019-05-18T17:43:32.911Z,25.19
2019-05-18T17:48:37.174Z,25.18
2019-05-18T17:53:41.413Z,25.07
2019-05-18T17:58:45.697Z,24.84
2019-05-18T18:03:49.931Z,24.79
2019-05-18T18:08:54.316Z,24.42
2019-05-18T18:13:58.580Z,24.40
2019-05-18T18:19:02.847Z,24.12
2019-05-18T18:24:07.239Z,24.00
2019-05-18T18:29:12.242Z,23.98
2019-05-18T18:34:16.624Z,23.89
2019-05-18T18:39:22.763Z,23.61
2019-05-18T18:44:27.082Z,23.43
2019-05-18T18:49:31.591Z,23.47
2019-05-18T18:54:36.005Z,23.30
2019-05-18T18:59:41.062Z,23.27
2019-05-18T19:04:45.311Z,23.18
2019-05-18T19:09:51.605Z,23.03
2019-05-18T19:14:55.873Z,23.01
2019-05-18T19:20:00.233Z,22.84
2019-05-18T19:25:05.342Z,22.69
2019-05-18T19:30:10.364Z,22.57
2019-05-18T19:35:14.853Z,22.28
2019-05-18T19:40:19.400Z,22.09
2019-05-18T19:45:23.675Z,22.06
2019-05-18T19:50:27.945Z,21.88
2019-05-18T19:55:32.193Z,21.75
2019-05-18T20:00:36.440Z,21.71
2019-05-18T20:05:40.696Z,21.36
2019-05-18T20:10:45.117Z,21.43
2019-05-18T20:15:49.427Z,21.50
2019-05-18T20:20:53.684Z,21.51
2019-05-18T20:25:57.935Z,21.39
2019-05-18T20:31:02.484Z,21.38
2019-05-18T20:36:06.903Z,21.01
2019-05-18T20:41:11.170Z,20.59
2019-05-18T20:46:15.456Z,20.39
2019-05-18T20:51:19.726Z,20.33
2019-05-18T20:56:24.012Z,20.06
2019-05-18T21:01:28.351Z,19.91
2019-05-18T21:06:32.617Z,19.86
2019-05-18T21:11:36.871Z,20.25
2019-05-18T21:16:41.114Z,20.16
2019-05-18T21:21:46.419Z,20.21
2019-05-18T21:26:50.684Z,19.87
2019-05-18T21:31:54.936Z,19.64
2019-05-18T21:36:59.295Z,19.38
2019-05-18T21:42:03.606Z,19.45
2019-05-18T21:47:07.888Z,19.44
2019-05-18T21:52:12.180Z,19.17
2019-05-18T21:57:16.460Z,18.92
2019-05-18T22:02:20.734Z,18.93
2019-05-18T22:07:24.988Z,19.19
2019-05-18T22:12:29.267Z,19.02
2019-05-18T22:17:36.463Z,18.72
2019-05-18T22:22:40.715Z,18.52
2019-05-18T22:27:44.970Z,18.55
2019-05-18T22:32:49.229Z,18.67
2019-05-18T22:37:53.588Z,18.66
2019-05-18T22:42:57.824Z,18.33
2019-05-18T22:48:02.153Z,18.33
2019-05-18T22:53:06.399Z,18.40
2019-05-18T22:58:10.660Z,18.27
2019-05-18T23:03:14.922Z,18.35
2019-05-18T23:08:19.189Z,18.37
2019-05-18T23:13:23.452Z,18.09
2019-05-18T23:18:27.714Z,17.90
2019-05-18T23:23:31.961Z,17.85
2019-05-18T23:28:36.217Z,17.80
2019-05-18T23:33:40.478Z,17.72
2019-05-18T23:38:44.779Z,17.37
2019-05-18T23:43:49.028Z,17.54
2019-05-18T23:48:53.305Z,17.30
2019-05-18T23:53:57.586Z,17.25
2019-05-18T23:59:01.845Z,17.33
